McHenry, MD

5:18 PM EDT on August 28, 2016 (GMT -0400)
Oakland

Weather History for K2G4 - January, 2014

Change the Weather History Date:

Wednesday, January 15, 2014

  Actual Average (KMGW) Record (KMGW)
Temperature  
Mean Temperature 27 °F 31 °F  
Max Temperature 33 °F 39 °F 67 °F (1995)
Min Temperature 21 °F 24 °F -14 °F (1972)
Degree Days  
Heating Degree Days 38 34  
Month to date heating degree days 507  
Since 1 July heating degree days 2491  
Cooling Degree Days 0 0  
Month to date cooling degree days 0  
Year to date cooling degree days 0  
Moisture  
Dew Point 22 °F    
Average Humidity 76    
Maximum Humidity 100    
Minimum Humidity 64    
Precipitation  
Precipitation 0.00 in 0.09 in 0.74 in (1959)
Month to date precipitation 1.35  
Year to date precipitation 1.35  
Sea Level Pressure  
Sea Level Pressure 29.84 in    
Wind  
Wind Speed 9 mph (WSW)    
Max Wind Speed 14 mph    
Max Gust Speed 22 mph    
Visibility 9 miles    
Events      
T = Trace of Precipitation, MM = Missing Value Source: NWS Daily Summary

Daily Weather History Graph

Daily Weather History Graph

Search for Another Location

Airport or City:

Trip Planner

Search our weather history database for the weather conditions in past years. The results will help you decide how hot, cold, wet, or windy it might be!

Date:

Astronomy

Jan. 15, 2014 Rise Set
Actual Time 7:36 AM EST 5:17 PM EST
Civil Twilight 7:06 AM EST 5:47 PM EST
Nautical Twilight 6:33 AM EST 6:20 PM EST
Astronomical Twilight 6:01 AM EST 6:52 PM EST
Moon 5:13 PM EST (1/15) 6:51 AM EST (1/15)
Length of Visible Light 10h 40m
Length of Day
9h 41m
Full, 100% of the Moon is Illuminated
Jan 15
Full
Jan 15
Full
Jan 24
Last Quarter
Jan 30
New
Feb 6
First Quarter

Hourly Weather History & Observations

Time (EST) Temp. Windchill Dew Point Humidity Pressure Visibility Wind Dir Wind Speed Gust Speed Precip Events Conditions
12:05 AM 32.0 °F 23.6 °F 26.6 °F 80% 29.80 in 10.0 mi SW 10.4 mph 16.1 mph N/A   Clear
12:25 AM 32.0 °F 23.6 °F 26.6 °F 80% 29.79 in 10.0 mi SSW 10.4 mph 16.1 mph N/A   Clear
12:45 AM 32.0 °F 24.8 °F 26.6 °F 80% 29.78 in 10.0 mi SW 8.1 mph - N/A   Clear
1:05 AM 32.0 °F 24.2 °F 26.6 °F 80% 29.78 in 10.0 mi SW 9.2 mph - N/A   Clear
1:25 AM 33.8 °F 25.8 °F 24.8 °F 70% 29.78 in 10.0 mi SW 10.4 mph - N/A   Clear
1:45 AM 33.8 °F 25.8 °F 24.8 °F 70% 29.78 in 10.0 mi SW 10.4 mph - N/A   Clear
2:05 AM 33.8 °F 25.3 °F 23.0 °F 65% 29.78 in 10.0 mi SSW 11.5 mph - N/A   Clear
2:25 AM 32.0 °F 23.6 °F 24.8 °F 75% 29.78 in 10.0 mi SSW 10.4 mph - N/A   Clear
2:45 AM 32.0 °F 23.6 °F 23.0 °F 69% 29.78 in 10.0 mi SSW 10.4 mph - N/A   Clear
3:05 AM 32.0 °F 24.8 °F 23.0 °F 69% 29.79 in 10.0 mi SSW 8.1 mph - N/A   Clear
3:25 AM 33.8 °F 25.8 °F 23.0 °F 65% 29.79 in 10.0 mi SSW 10.4 mph - N/A   Clear
3:45 AM 33.8 °F 26.4 °F 23.0 °F 65% 29.79 in 10.0 mi SW 9.2 mph - N/A   Scattered Clouds
4:05 AM 33.8 °F 27.7 °F 23.0 °F 65% 29.79 in 10.0 mi SW 6.9 mph - N/A   Mostly Cloudy
4:25 AM 33.8 °F 26.4 °F 23.0 °F 65% 29.78 in 10.0 mi SW 9.2 mph - N/A   Overcast
4:45 AM 33.8 °F 27.7 °F 23.0 °F 65% 29.79 in 10.0 mi SW 6.9 mph 16.1 mph N/A   Scattered Clouds
5:05 AM 33.8 °F 27.0 °F 23.0 °F 65% 29.80 in 10.0 mi WSW 8.1 mph 16.1 mph N/A   Mostly Cloudy
5:25 AM 33.8 °F 25.8 °F 23.0 °F 65% 29.80 in 10.0 mi WSW 10.4 mph 19.6 mph N/A   Mostly Cloudy
5:45 AM 33.8 °F 28.6 °F 24.8 °F 70% 29.81 in 10.0 mi WSW 5.8 mph - N/A   Overcast
6:05 AM 33.8 °F 26.4 °F 26.6 °F 75% 29.81 in 10.0 mi WSW 9.2 mph - N/A   Overcast
6:25 AM 32.0 °F 24.2 °F 26.6 °F 80% 29.82 in 10.0 mi WSW 9.2 mph 18.4 mph N/A   Overcast
6:45 AM 32.0 °F 24.2 °F 28.4 °F 87% 29.83 in 10.0 mi WSW 9.2 mph - N/A   Overcast
7:05 AM 32.0 °F 26.4 °F 28.4 °F 87% 29.83 in 5.0 mi WSW 5.8 mph - N/A   Overcast
7:25 AM 32.0 °F 24.8 °F 32.0 °F 100% 29.84 in 2.5 mi WNW 8.1 mph - N/A   Overcast
7:45 AM 30.2 °F 20.2 °F 30.2 °F 100% 29.85 in 2.5 mi WSW 12.7 mph 16.1 mph N/A   Overcast
8:05 AM 28.4 °F 21.2 °F 28.4 °F 100% 29.86 in 5.0 mi WSW 6.9 mph - N/A   Overcast
8:25 AM 28.4 °F 23.3 °F 28.4 °F 100% 29.87 in 3.0 mi WSW 4.6 mph - N/A   Overcast
8:45 AM 28.4 °F 20.4 °F 28.4 °F 100% 29.87 in 1.8 mi SW 8.1 mph - N/A   Overcast
9:05 AM 26.6 °F 17.5 °F 26.6 °F 100% 29.89 in 4.0 mi WSW 9.2 mph 18.4 mph N/A   Overcast
9:25 AM 26.6 °F 15.7 °F 26.6 °F 100% 29.89 in 2.5 mi WSW 12.7 mph 17.3 mph N/A   Overcast
9:45 AM 26.6 °F 15.2 °F 26.6 °F 100% 29.90 in 5.0 mi WSW 13.8 mph 21.9 mph N/A   Overcast
10:05 AM 26.6 °F 18.2 °F 23.0 °F 86% 29.90 in 10.0 mi SW 8.1 mph - N/A   Overcast
10:25 AM 28.4 °F 18.0 °F 21.2 °F 74% 29.89 in 10.0 mi WSW 12.7 mph 17.3 mph N/A   Overcast
10:45 AM 28.4 °F 23.3 °F 21.2 °F 74% 29.89 in 10.0 mi WSW 4.6 mph 16.1 mph N/A   Overcast
11:05 AM 28.4 °F 20.4 °F 21.2 °F 74% 29.88 in 10.0 mi West 8.1 mph 16.1 mph N/A   Mostly Cloudy
11:25 AM 28.4 °F 22.2 °F 21.2 °F 74% 29.88 in 10.0 mi West 5.8 mph - N/A   Overcast
11:45 AM 28.4 °F 19.7 °F 21.2 °F 74% 29.87 in 10.0 mi WSW 9.2 mph - N/A   Overcast
12:05 PM 28.4 °F 22.2 °F 21.2 °F 74% 29.86 in 10.0 mi WSW 5.8 mph 17.3 mph N/A   Overcast
12:25 PM 28.4 °F 19.7 °F 21.2 °F 74% 29.85 in 10.0 mi WSW 9.2 mph - N/A   Overcast
12:45 PM 28.4 °F 21.2 °F 21.2 °F 74% 29.85 in 10.0 mi West 6.9 mph 16.1 mph N/A   Overcast
1:05 PM 28.4 °F 19.1 °F 21.2 °F 74% 29.84 in 10.0 mi West 10.4 mph - N/A   Overcast
1:25 PM 28.4 °F 19.7 °F 23.0 °F 80% 29.83 in 7.0 mi West 9.2 mph - N/A   Overcast
1:45 PM 28.4 °F 22.2 °F 23.0 °F 80% 29.83 in 7.0 mi SW 5.8 mph - N/A   Overcast
2:05 PM 30.2 °F 22.6 °F 23.0 °F 75% 29.83 in 7.0 mi West 8.1 mph - N/A   Overcast
2:25 PM 28.4 °F 22.2 °F 23.0 °F 80% 29.83 in 10.0 mi WSW 5.8 mph 16.1 mph N/A   Overcast
2:45 PM 28.4 °F 19.1 °F 21.2 °F 74% 29.84 in 10.0 mi WSW 10.4 mph 17.3 mph N/A   Overcast
3:05 PM 28.4 °F 19.7 °F 19.4 °F 69% 29.83 in 10.0 mi WSW 9.2 mph - N/A   Overcast
3:25 PM 28.4 °F 19.1 °F 19.4 °F 69% 29.84 in 10.0 mi WSW 10.4 mph - N/A   Overcast
3:45 PM 28.4 °F 20.4 °F 17.6 °F 64% 29.84 in 10.0 mi West 8.1 mph - N/A   Overcast
4:05 PM 28.4 °F 23.3 °F 19.4 °F 69% 29.84 in 10.0 mi West 4.6 mph - N/A   Overcast
4:25 PM 28.4 °F 22.2 °F 19.4 °F 69% 29.85 in 10.0 mi West 5.8 mph - N/A   Overcast
4:45 PM 28.4 °F 23.3 °F 17.6 °F 64% 29.84 in 10.0 mi West 4.6 mph - N/A   Overcast
5:05 PM 26.6 °F 20.0 °F 17.6 °F 69% 29.84 in 10.0 mi West 5.8 mph - N/A   Overcast
5:25 PM 26.6 °F 17.5 °F 17.6 °F 69% 29.84 in 10.0 mi West 9.2 mph - N/A   Overcast
5:45 PM 26.6 °F 20.0 °F 15.8 °F 64% 29.85 in 10.0 mi West 5.8 mph - N/A   Overcast
6:05 PM 26.6 °F 20.0 °F 15.8 °F 64% 29.85 in 10.0 mi WNW 5.8 mph - N/A   Overcast
6:25 PM 26.6 °F 19.1 °F 15.8 °F 64% 29.85 in 10.0 mi WNW 6.9 mph - N/A   Overcast
6:45 PM 26.6 °F 19.1 °F 17.6 °F 69% 29.86 in 10.0 mi WNW 6.9 mph - N/A   Overcast
7:05 PM 26.6 °F 20.0 °F 17.6 °F 69% 29.86 in 10.0 mi WNW 5.8 mph - N/A   Overcast
7:25 PM 26.6 °F 20.0 °F 15.8 °F 64% 29.87 in 10.0 mi WNW 5.8 mph - N/A   Overcast
7:45 PM 24.8 °F 17.9 °F 15.8 °F 69% 29.87 in 10.0 mi WNW 5.8 mph - N/A   Overcast
8:05 PM 24.8 °F 15.3 °F 15.8 °F 69% 29.87 in 10.0 mi West 9.2 mph - N/A   Overcast
8:25 PM 24.8 °F 16.1 °F 15.8 °F 69% 29.87 in 10.0 mi West 8.1 mph - N/A   Overcast
8:45 PM 23.0 °F 15.8 °F 14.0 °F 68% 29.87 in 10.0 mi West 5.8 mph - N/A   Overcast
9:05 PM 23.0 °F 13.1 °F 14.0 °F 68% 29.87 in 10.0 mi NW 9.2 mph 17.3 mph N/A   Overcast
9:25 PM 23.0 °F 15.8 °F 14.0 °F 68% 29.87 in 10.0 mi WNW 5.8 mph - N/A   Overcast
9:45 PM 23.0 °F 13.1 °F 15.8 °F 74% 29.88 in 10.0 mi WNW 9.2 mph - N/A   Overcast
10:10 PM 21.2 °F 11.7 °F 17.6 °F 86% 29.88 in 7.0 mi WNW 8.1 mph - N/A   Overcast
10:30 PM 21.2 °F 12.6 °F 17.6 °F 86% 29.87 in 10.0 mi NW 6.9 mph - N/A   Overcast
10:50 PM 21.2 °F 13.6 °F 17.6 °F 86% 29.87 in 10.0 mi WNW 5.8 mph - N/A   Overcast
11:10 PM 21.2 °F 14.9 °F 17.6 °F 86% 29.87 in 10.0 mi WNW 4.6 mph - N/A   Overcast
11:30 PM 21.2 °F 11.7 °F 17.6 °F 86% 29.87 in 5.0 mi WNW 8.1 mph - N/A   Overcast
11:50 PM 21.2 °F 12.6 °F 17.6 °F 86% 29.86 in 7.0 mi WNW 6.9 mph - N/A   Overcast